Quick Links (Output Below):   Max & Min Temps   /   Climate Reports   /   Zone Forecasts
River Forecasts   /   Forestry Forecasts   /   Aviation Forecasts   /   Radars   /   Features

Terminal Aerodrome Forecast (Little Rock)

Pick a Site:
Arkadelphia | El Dorado | Fayetteville | Fort Smith | Harrison | Highfill | Hot Springs | Jonesboro
Little Rock | Monticello | Mountain Home | Pine Bluff | Texarkana
 Forecast 

KLIT 301120Z 3012/3112 20006KT P6SM FEW150
     FM301900 22007KT P6SM VCSH BKN060
     FM310600 34008G16KT P6SM SKC=


 Latest METARs (Observations) 
How to Decode METARs
13Z KLIT 301253Z 00000KT 10SM CLR 08/06 A3017 RMK AO2 SLP218 FG BANK
         OVR RIVER NE-E T00830061
         
12Z KLIT 301153Z 25003KT 10SM CLR 08/06 A3018 RMK AO2 SLP221 T00830061
         10100 20078 53008
         
11Z KLIT 301053Z 00000KT 10SM CLR 08/06 A3016 RMK AO2 SLP214
         T00780056
         
10Z KLIT 300953Z 00000KT 10SM CLR 08/06 A3015 RMK AO2 SLP212
         T00830061
         
09Z KLIT 300853Z 24004KT 10SM CLR 08/07 A3015 RMK AO2 SLP211 T00830067
         55003
         
08Z KLIT 300753Z 25004KT 10SM CLR 09/07 A3015 RMK AO2 SLP209
         T00940072
         
07Z KLIT 300653Z 25003KT 10SM CLR 10/08 A3015 RMK AO2 SLP211
         T01000078
         
06Z KLIT 300553Z COR 26003KT 10SM CLR 10/08 A3016 RMK AO2 SLP214
         T01000078 10167 20100 402280100 50000
         
05Z KLIT 300453Z 00000KT 10SM CLR 11/08 A3016 RMK AO2 SLP215
         T01110083
         
04Z KLIT 300353Z 00000KT 10SM CLR 12/09 A3016 RMK AO2 SLP214
         T01170089
         
***** Today's Observations (Above) *****


Back to Main Page
http://www.srh.noaa.gov/lzk/qfcst.php

USA.gov is the U.S. government's official web portal to all federal, state and local government web resources and services.